createdAt,value
2023-04-20T00:01:04.430Z,100260.14
2023-04-20T00:03:32.553Z,100254.73
2023-04-20T00:06:02.720Z,100249.89
2023-04-20T00:08:30.118Z,100250.98
2023-04-20T00:10:57.272Z,100245.88
2023-04-20T00:13:24.543Z,100248.33
2023-04-20T00:15:51.621Z,100247.20
2023-04-20T00:18:18.954Z,100246.35
2023-04-20T00:20:45.983Z,100241.05
2023-04-20T00:23:13.011Z,100240.30
2023-04-20T00:25:40.574Z,100243.36
2023-04-20T00:28:08.446Z,100238.76
2023-04-20T00:30:35.661Z,100235.87
2023-04-20T00:33:04.358Z,100231.73
2023-04-20T00:35:32.217Z,100229.61
2023-04-20T00:37:59.178Z,100227.02
2023-04-20T00:40:26.199Z,100227.92
2023-04-20T00:42:53.184Z,100226.83
2023-04-20T00:52:33.677Z,100217.25
2023-04-20T00:55:02.871Z,100221.52
2023-04-20T00:57:31.279Z,100219.46
2023-04-20T01:00:02.821Z,100216.45
2023-04-20T01:02:32.010Z,100212.05
2023-04-20T01:05:02.858Z,100206.92
2023-04-20T01:07:32.788Z,100208.70
2023-04-20T01:10:01.347Z,100208.34
2023-04-20T01:12:29.987Z,100204.46
2023-04-20T01:14:59.909Z,100206.23
2023-04-20T01:17:28.590Z,100201.34
2023-04-20T01:19:57.025Z,100199.82
2023-04-20T01:22:25.637Z,100197.34
2023-04-20T01:24:54.324Z,100192.93
2023-04-20T01:27:22.665Z,100192.48
2023-04-20T01:29:51.899Z,100192.30
2023-04-20T01:32:20.253Z,100187.96
2023-04-20T01:34:48.554Z,100186.09
2023-04-20T01:37:17.668Z,100184.98
2023-04-20T01:39:48.926Z,100182.34
2023-04-20T01:42:17.332Z,100178.73
2023-04-20T01:44:46.062Z,100179.92
2023-04-20T01:47:14.535Z,100180.40
2023-04-20T01:49:43.306Z,100179.86
2023-04-20T01:52:11.821Z,100177.13
2023-04-20T01:54:40.673Z,100176.93
2023-04-20T01:57:08.954Z,100175.98
2023-04-20T01:59:37.212Z,100174.23
2023-04-20T02:02:05.659Z,100177.23
2023-04-20T02:04:35.102Z,100176.28
2023-04-20T02:07:03.791Z,100178.29
2023-04-20T02:09:32.165Z,100176.42
2023-04-20T02:12:02.080Z,100171.35
2023-04-20T02:14:31.253Z,100178.63
2023-04-20T02:17:01.117Z,100181.01
2023-04-20T02:19:29.902Z,100177.67
2023-04-20T02:21:58.330Z,100177.49
2023-04-20T02:24:26.656Z,100180.25
2023-04-20T02:26:57.423Z,100182.88
2023-04-20T02:29:25.999Z,100184.53
2023-04-20T02:31:54.418Z,100184.60
2023-04-20T02:34:24.594Z,100189.94
2023-04-20T02:36:53.968Z,100184.39
2023-04-20T02:39:22.259Z,100187.05
2023-04-20T02:41:50.972Z,100191.27
2023-04-20T02:44:20.656Z,100190.45
2023-04-20T02:46:49.741Z,100193.97
2023-04-20T02:49:18.877Z,100197.19
2023-04-20T02:51:48.034Z,100196.64
2023-04-20T02:54:16.301Z,100198.91
2023-04-20T02:56:45.205Z,100197.38
2023-04-20T02:59:13.860Z,100201.67
2023-04-20T03:02:00.673Z,100207.30
2023-04-20T03:04:31.324Z,100208.00
2023-04-20T03:07:05.112Z,100209.11
2023-04-20T03:09:37.249Z,100207.30
2023-04-20T03:12:14.731Z,100208.76
2023-04-20T03:15:02.224Z,100205.13
2023-04-20T03:17:58.112Z,100211.17
2023-04-20T03:20:26.663Z,100211.91
2023-04-20T03:22:55.426Z,100208.56
2023-04-20T03:25:25.846Z,100208.10
2023-04-20T03:28:01.644Z,100212.42
2023-04-20T03:30:30.962Z,100208.72
2023-04-20T03:33:10.011Z,100204.75
2023-04-20T03:35:39.642Z,100208.64
2023-04-20T03:38:08.348Z,100209.55
2023-04-20T03:40:38.391Z,100211.84
2023-04-20T03:43:06.852Z,100216.59
2023-04-20T03:45:35.272Z,100218.45
2023-04-20T03:48:04.006Z,100216.30
2023-04-20T03:50:32.464Z,100218.63
2023-04-20T03:53:01.216Z,100211.30
2023-04-20T03:55:30.055Z,100214.77
2023-04-20T03:58:01.640Z,100210.89
2023-04-20T04:00:36.140Z,100211.65
2023-04-20T04:03:06.398Z,100212.30
2023-04-20T04:05:34.928Z,100210.74
2023-04-20T04:08:04.168Z,100211.95
2023-04-20T04:10:33.064Z,100210.48
2023-04-20T04:13:01.551Z,100211.33
2023-04-20T04:15:30.269Z,100213.49
2023-04-20T04:18:09.228Z,100211.43
2023-04-20T04:20:38.200Z,100215.10
2023-04-20T04:23:07.980Z,100213.68
2023-04-20T04:25:46.831Z,100216.29
2023-04-20T04:28:16.804Z,100216.61
2023-04-20T04:30:52.618Z,100217.69
2023-04-20T04:33:22.109Z,100217.76
2023-04-20T04:35:51.209Z,100218.77
2023-04-20T04:38:21.275Z,100214.23
2023-04-20T04:40:52.616Z,100218.59
2023-04-20T04:43:21.226Z,100216.06
2023-04-20T04:45:58.758Z,100218.06
2023-04-20T04:48:28.121Z,100218.98
2023-04-20T04:50:56.925Z,100220.98
2023-04-20T04:53:25.496Z,100219.41
2023-04-20T04:55:54.244Z,100223.83
2023-04-20T04:58:22.523Z,100222.73
2023-04-20T05:00:51.088Z,100221.52
2023-04-20T05:03:24.110Z,100219.71
2023-04-20T05:05:55.335Z,100213.98
2023-04-20T05:08:24.707Z,100219.81
2023-04-20T05:10:53.158Z,100223.02
2023-04-20T05:13:21.457Z,100220.73
2023-04-20T05:15:50.025Z,100218.22
2023-04-20T05:18:18.611Z,100220.23
2023-04-20T05:20:46.902Z,100223.27
2023-04-20T05:23:15.658Z,100221.95
2023-04-20T05:25:44.363Z,100221.61
2023-04-20T05:28:16.024Z,100223.87
2023-04-20T05:30:44.820Z,100227.63
2023-04-20T05:33:13.554Z,100228.44
2023-04-20T05:35:44.108Z,100228.11
2023-04-20T05:38:12.595Z,100227.20
2023-04-20T05:40:41.141Z,100227.94
2023-04-20T05:43:10.136Z,100225.79
2023-04-20T05:45:38.505Z,100229.08
2023-04-20T05:48:07.035Z,100225.58
2023-04-20T05:50:36.207Z,100225.77
2023-04-20T05:53:04.681Z,100227.18
2023-04-20T05:55:33.611Z,100225.89
2023-04-20T05:58:02.065Z,100225.37
2023-04-20T06:00:30.565Z,100224.52
2023-04-20T06:02:59.384Z,100220.96
2023-04-20T06:05:28.315Z,100220.98
2023-04-20T06:07:57.410Z,100217.61
2023-04-20T06:10:25.863Z,100218.92
2023-04-20T06:12:54.519Z,100221.50
2023-04-20T06:15:23.593Z,100219.92
2023-04-20T06:17:52.176Z,100222.60
2023-04-20T06:20:23.409Z,100217.96
2023-04-20T06:22:53.694Z,100217.28
2023-04-20T06:25:22.274Z,100217.80
2023-04-20T06:27:52.603Z,100220.95
2023-04-20T06:30:21.379Z,100221.21
2023-04-20T06:32:49.977Z,100225.45
2023-04-20T06:35:18.733Z,100225.50
2023-04-20T06:37:47.196Z,100223.44
2023-04-20T06:40:16.357Z,100226.77
2023-04-20T06:42:50.797Z,100226.55
2023-04-20T06:45:20.273Z,100228.13
2023-04-20T06:47:49.814Z,100225.48
2023-04-20T06:50:18.633Z,100226.43
2023-04-20T06:52:48.828Z,100227.20
2023-04-20T06:55:17.203Z,100230.66
2023-04-20T06:57:48.595Z,100227.86
2023-04-20T07:00:19.027Z,100228.41
2023-04-20T07:02:48.984Z,100227.49
2023-04-20T07:05:18.575Z,100230.63
2023-04-20T07:07:47.676Z,100230.39
2023-04-20T07:10:16.784Z,100230.31
2023-04-20T07:12:45.261Z,100232.36
2023-04-20T07:15:13.602Z,100231.10
2023-04-20T07:17:42.497Z,100237.21
2023-04-20T07:20:11.298Z,100237.05
2023-04-20T07:22:40.613Z,100234.87
2023-04-20T07:25:09.696Z,100233.50
2023-04-20T07:27:39.766Z,100233.37
2023-04-20T07:30:09.087Z,100234.63
2023-04-20T07:32:39.155Z,100237.68
2023-04-20T07:35:07.918Z,100238.45
2023-04-20T07:37:36.548Z,100235.30
2023-04-20T07:40:07.454Z,100236.52
2023-04-20T07:42:37.490Z,100236.27
2023-04-20T07:45:07.022Z,100237.26
2023-04-20T07:47:35.722Z,100236.81
2023-04-20T07:50:07.686Z,100236.30
2023-04-20T07:52:36.531Z,100237.79
2023-04-20T07:55:06.767Z,100244.10
2023-04-20T07:57:35.276Z,100242.88
2023-04-20T08:00:08.117Z,100238.13
2023-04-20T08:02:42.235Z,100240.94
2023-04-20T08:05:11.763Z,100242.55
2023-04-20T08:07:40.925Z,100239.76
2023-04-20T08:10:10.494Z,100242.46
2023-04-20T08:12:40.785Z,100236.91
2023-04-20T08:15:10.115Z,100232.83
2023-04-20T08:17:38.813Z,100235.02
2023-04-20T08:20:08.096Z,100241.49
2023-04-20T08:22:38.741Z,100235.46
2023-04-20T08:25:07.704Z,100239.98
2023-04-20T08:27:37.240Z,100233.17
2023-04-20T08:30:06.955Z,100235.98
2023-04-20T08:32:35.927Z,100234.83
2023-04-20T08:35:05.415Z,100238.49
2023-04-20T08:37:34.686Z,100234.84
2023-04-20T08:40:03.904Z,100234.34
2023-04-20T08:42:32.842Z,100232.30
2023-04-20T08:45:01.919Z,100227.54
2023-04-20T08:47:30.933Z,100233.65
2023-04-20T08:49:59.419Z,100225.52
2023-04-20T08:52:27.995Z,100225.84
2023-04-20T08:54:57.864Z,100225.96
2023-04-20T08:57:26.728Z,100228.27
2023-04-20T08:59:56.184Z,100234.13
2023-04-20T09:02:25.029Z,100231.65
2023-04-20T09:05:07.075Z,100232.96
2023-04-20T09:07:37.650Z,100239.70
2023-04-20T09:10:06.716Z,100243.68
2023-04-20T09:12:44.001Z,100240.27
2023-04-20T09:15:24.923Z,100238.02
2023-04-20T09:17:54.459Z,100243.63
2023-04-20T09:20:33.331Z,100244.66
2023-04-20T09:23:14.918Z,100237.50
2023-04-20T09:25:45.332Z,100241.23
2023-04-20T09:28:14.071Z,100246.67
2023-04-20T09:30:46.936Z,100241.39
2023-04-20T09:33:15.596Z,100255.70
2023-04-20T09:35:45.249Z,100246.48
2023-04-20T09:38:17.466Z,100239.99
2023-04-20T09:40:46.082Z,100238.69
2023-04-20T09:43:19.321Z,100238.38
2023-04-20T09:45:47.816Z,100243.63
2023-04-20T09:48:19.554Z,100237.51
2023-04-20T09:50:50.523Z,100242.43
2023-04-20T09:53:20.997Z,100237.32
2023-04-20T09:55:50.461Z,100238.19
2023-04-20T09:58:20.765Z,100230.70
2023-04-20T10:00:50.082Z,100237.52
2023-04-20T10:03:20.244Z,100235.95
2023-04-20T10:05:49.370Z,100236.83
2023-04-20T10:08:18.809Z,100231.92
2023-04-20T10:10:48.649Z,100232.63
2023-04-20T10:13:19.885Z,100231.01
2023-04-20T10:15:48.520Z,100231.31
2023-04-20T10:18:24.692Z,100230.67
2023-04-20T10:21:09.749Z,100231.50
2023-04-20T10:23:51.848Z,100232.77
2023-04-20T10:26:20.616Z,100239.50
2023-04-20T10:28:49.181Z,100240.17
2023-04-20T10:31:20.389Z,100236.02
2023-04-20T10:33:52.663Z,100234.20
2023-04-20T10:36:25.182Z,100231.66
2023-04-20T10:38:53.609Z,100229.80
2023-04-20T10:41:22.040Z,100231.13
2023-04-20T10:43:50.526Z,100233.52
2023-04-20T10:46:22.872Z,100233.65
2023-04-20T10:48:59.369Z,100225.71
2023-04-20T10:51:27.938Z,100225.78
2023-04-20T10:54:00.211Z,100228.48
2023-04-20T10:56:28.908Z,100229.09
2023-04-20T10:59:07.238Z,100237.94
2023-04-20T11:01:36.118Z,100240.36
2023-04-20T11:04:04.759Z,100238.17
2023-04-20T11:06:34.678Z,100240.41
2023-04-20T11:09:03.350Z,100234.02
2023-04-20T11:11:31.997Z,100231.80
2023-04-20T11:14:10.329Z,100234.54
2023-04-20T11:19:10.503Z,100241.02
2023-04-20T11:21:40.320Z,100237.75
2023-04-20T11:24:23.001Z,100231.67
2023-04-20T11:26:51.760Z,100230.45
2023-04-20T11:29:30.348Z,100238.50
2023-04-20T11:31:59.398Z,100242.73
2023-04-20T11:34:27.925Z,100243.65
2023-04-20T11:36:59.471Z,100238.88
2023-04-20T11:39:28.828Z,100238.02
2023-04-20T11:41:57.567Z,100238.35
2023-04-20T11:44:27.668Z,100233.02
2023-04-20T11:46:59.989Z,100237.88
2023-04-20T11:49:29.139Z,100240.70
2023-04-20T11:51:57.879Z,100231.35
2023-04-20T11:54:27.546Z,100235.36
2023-04-20T11:56:56.767Z,100232.09
2023-04-20T11:59:25.685Z,100234.50
2023-04-20T12:01:54.368Z,100233.59
2023-04-20T12:04:23.065Z,100230.39
2023-04-20T12:06:51.910Z,100228.80
2023-04-20T12:09:20.646Z,100227.20
2023-04-20T12:11:49.317Z,100221.13
2023-04-20T12:14:17.723Z,100212.24
2023-04-20T12:16:47.271Z,100213.52
2023-04-20T12:19:16.573Z,100217.82
2023-04-20T12:21:47.577Z,100220.32
2023-04-20T12:24:15.972Z,100222.30
2023-04-20T12:26:44.348Z,100220.26
2023-04-20T12:29:13.047Z,100213.34
2023-04-20T12:31:41.559Z,100218.08
2023-04-20T12:34:09.984Z,100215.77
2023-04-20T12:36:38.616Z,100217.64
2023-04-20T12:39:07.360Z,100218.74
2023-04-20T12:41:36.546Z,100215.28
2023-04-20T12:44:07.613Z,100213.98
2023-04-20T12:46:37.232Z,100217.00
2023-04-20T12:49:05.856Z,100212.66
2023-04-20T12:51:34.746Z,100210.98
2023-04-20T12:54:03.334Z,100212.98
2023-04-20T12:56:32.582Z,100210.45
2023-04-20T12:59:00.970Z,100208.05
2023-04-20T13:01:29.648Z,100214.19
2023-04-20T13:03:58.296Z,100220.50
2023-04-20T13:06:26.999Z,100215.95
2023-04-20T13:08:55.535Z,100212.77
2023-04-20T13:11:26.700Z,100212.23
2023-04-20T13:13:58.295Z,100207.90
2023-04-20T13:16:27.034Z,100222.91
2023-04-20T13:18:55.506Z,100222.33
2023-04-20T13:21:23.891Z,100229.92
2023-04-20T13:23:54.037Z,100227.09
2023-04-20T13:26:23.432Z,100217.71
2023-04-20T13:28:51.871Z,100215.41
2023-04-20T13:31:20.414Z,100218.91
2023-04-20T13:33:49.345Z,100217.41
2023-04-20T13:36:17.805Z,100211.57
2023-04-20T13:38:46.811Z,100212.18
2023-04-20T13:41:16.206Z,100214.48
2023-04-20T13:43:44.800Z,100210.55
2023-04-20T13:46:13.272Z,100201.61
2023-04-20T13:48:41.748Z,100202.25
2023-04-20T13:51:10.488Z,100210.83
2023-04-20T13:53:39.775Z,100213.20
2023-04-20T13:56:08.378Z,100211.98
2023-04-20T13:58:37.863Z,100210.34
2023-04-20T14:01:13.112Z,100203.04
2023-04-20T14:03:42.753Z,100202.52
2023-04-20T14:06:11.158Z,100207.73
2023-04-20T14:08:40.466Z,100211.14
2023-04-20T14:11:09.081Z,100210.73
2023-04-20T14:13:38.498Z,100202.19
2023-04-20T14:16:11.267Z,100202.69
2023-04-20T14:18:39.708Z,100205.23
2023-04-20T14:21:08.347Z,100213.24
2023-04-20T14:23:36.795Z,100207.73
2023-04-20T14:26:05.491Z,100205.95
2023-04-20T14:28:34.073Z,100202.95
2023-04-20T14:31:03.638Z,100208.73
2023-04-20T14:33:32.492Z,100206.97
2023-04-20T14:36:01.042Z,100204.18
2023-04-20T14:38:29.760Z,100204.94
2023-04-20T14:41:19.153Z,100213.03
2023-04-20T14:43:47.493Z,100210.09
2023-04-20T14:46:16.356Z,100210.45
2023-04-20T14:48:46.630Z,100211.52
2023-04-20T14:51:16.418Z,100210.41
2023-04-20T14:53:44.772Z,100215.37
2023-04-20T14:56:13.495Z,100211.16
2023-04-20T14:58:42.663Z,100208.00
2023-04-20T15:01:11.591Z,100206.30
2023-04-20T15:03:40.197Z,100207.56
2023-04-20T15:06:08.994Z,100202.37
2023-04-20T15:08:37.492Z,100212.11
2023-04-20T15:11:05.998Z,100207.60
2023-04-20T15:13:34.683Z,100208.59
2023-04-20T15:16:03.131Z,100203.08
2023-04-20T15:18:32.185Z,100206.09
2023-04-20T15:21:00.812Z,100201.06
2023-04-20T15:23:29.719Z,100198.45
2023-04-20T15:25:58.136Z,100201.34
2023-04-20T15:28:26.824Z,100202.31
2023-04-20T15:30:55.249Z,100200.59
2023-04-20T15:33:23.951Z,100193.80
2023-04-20T15:35:52.522Z,100189.88
2023-04-20T15:38:21.821Z,100194.02
2023-04-20T15:40:51.854Z,100186.73
2023-04-20T15:43:20.993Z,100185.14
2023-04-20T15:45:50.116Z,100184.84
2023-04-20T15:48:18.484Z,100187.34
2023-04-20T15:50:51.928Z,100188.96
2023-04-20T15:53:22.481Z,100184.25
2023-04-20T15:55:51.768Z,100186.45
2023-04-20T15:58:20.386Z,100188.10
2023-04-20T16:00:48.753Z,100189.18
2023-04-20T16:03:18.259Z,100185.56
2023-04-20T16:05:46.989Z,100188.41
2023-04-20T16:08:19.110Z,100192.00
2023-04-20T16:10:48.935Z,100196.34
2023-04-20T16:13:17.527Z,100197.13
2023-04-20T16:15:46.166Z,100196.54
2023-04-20T16:18:14.958Z,100198.02
2023-04-20T16:20:43.880Z,100194.20
2023-04-20T16:23:13.470Z,100195.06
2023-04-20T16:25:42.879Z,100196.76
2023-04-20T16:28:12.276Z,100194.94
2023-04-20T16:30:41.105Z,100194.40
2023-04-20T16:33:09.811Z,100198.05
2023-04-20T16:35:39.341Z,100194.06
2023-04-20T16:38:10.783Z,100193.10
2023-04-20T16:40:43.060Z,100193.73
2023-04-20T16:43:11.987Z,100194.71
2023-04-20T16:45:40.387Z,100199.13
2023-04-20T16:48:09.001Z,100196.59
2023-04-20T16:50:40.243Z,100196.12
2023-04-20T16:53:10.512Z,100200.48
2023-04-20T16:55:39.046Z,100205.44
2023-04-20T16:58:07.441Z,100204.06
2023-04-20T17:00:36.330Z,100206.06
2023-04-20T17:03:10.786Z,100203.11
2023-04-20T17:05:41.657Z,100201.40
2023-04-20T17:08:10.911Z,100204.35
2023-04-20T17:10:39.620Z,100203.08
2023-04-20T17:13:08.638Z,100204.69
2023-04-20T17:15:37.482Z,100202.64
2023-04-20T17:18:07.146Z,100202.36
2023-04-20T17:20:35.665Z,100202.48
2023-04-20T17:23:06.437Z,100207.65
2023-04-20T17:25:35.577Z,100203.26
2023-04-20T17:28:04.261Z,100202.70
2023-04-20T17:30:33.280Z,100209.30
2023-04-20T17:33:02.159Z,100212.65
2023-04-20T17:35:55.754Z,100214.70
2023-04-20T17:38:45.875Z,100213.22
2023-04-20T17:41:18.062Z,100210.36
2023-04-20T17:43:48.084Z,100210.33
2023-04-20T17:46:17.140Z,100202.85
2023-04-20T17:48:47.539Z,100201.43
2023-04-20T17:51:19.144Z,100198.92
2023-04-20T17:53:51.911Z,100195.02
2023-04-20T17:56:21.088Z,100191.69
2023-04-20T17:58:50.354Z,100187.73
2023-04-20T18:01:19.317Z,100190.42
2023-04-20T18:03:49.723Z,100191.40
2023-04-20T18:06:20.702Z,100192.36
2023-04-20T18:08:50.788Z,100191.77
2023-04-20T18:11:20.479Z,100193.27
2023-04-20T18:13:53.212Z,100189.91
2023-04-20T18:16:23.339Z,100192.54
2023-04-20T18:18:53.257Z,100194.99
2023-04-20T18:21:25.498Z,100186.96
2023-04-20T18:23:55.905Z,100184.84
2023-04-20T18:26:27.670Z,100183.83
2023-04-20T18:28:56.504Z,100189.05
2023-04-20T18:31:27.985Z,100187.67
2023-04-20T18:33:58.564Z,100188.95
2023-04-20T18:36:32.924Z,100187.39
2023-04-20T18:39:06.208Z,100186.66
2023-04-20T18:41:35.518Z,100181.27
2023-04-20T18:44:05.758Z,100177.93
2023-04-20T18:46:35.471Z,100175.89
2023-04-20T18:49:07.323Z,100180.48
2023-04-20T18:51:36.570Z,100179.70
2023-04-20T18:54:05.178Z,100182.26
2023-04-20T18:56:35.072Z,100182.29
2023-04-20T18:59:08.675Z,100180.52
2023-04-20T19:01:41.664Z,100178.74
2023-04-20T19:04:13.138Z,100175.89
2023-04-20T19:06:42.568Z,100171.86
2023-04-20T19:09:11.748Z,100172.87
2023-04-20T19:11:45.504Z,100169.98
2023-04-20T19:14:17.463Z,100173.48
2023-04-20T19:16:46.453Z,100171.05
2023-04-20T19:19:14.956Z,100169.52
2023-04-20T19:21:43.654Z,100171.75
2023-04-20T19:24:15.798Z,100170.45
2023-04-20T19:26:44.391Z,100163.38
2023-04-20T19:29:14.416Z,100163.76
2023-04-20T19:31:46.483Z,100158.39
2023-04-20T19:34:18.725Z,100159.08
2023-04-20T19:36:50.798Z,100163.23
2023-04-20T19:39:21.228Z,100161.26
2023-04-20T19:42:23.773Z,100159.80
2023-04-20T19:44:54.045Z,100159.35
2023-04-20T19:47:24.045Z,100161.41
2023-04-20T19:49:52.686Z,100161.00
2023-04-20T19:52:25.902Z,100160.84
2023-04-20T19:54:57.370Z,100162.72
2023-04-20T19:57:29.425Z,100163.45
2023-04-20T20:00:35.088Z,100161.31
2023-04-20T20:03:04.237Z,100161.70
2023-04-20T20:05:57.152Z,100161.70
2023-04-20T20:08:28.934Z,100159.17
2023-04-20T20:10:59.179Z,100155.48
2023-04-20T20:13:27.826Z,100156.19
2023-04-20T20:16:18.116Z,100147.52
2023-04-20T20:18:48.143Z,100147.94
2023-04-20T20:21:18.536Z,100144.47
2023-04-20T20:23:48.321Z,100146.27
2023-04-20T20:26:18.233Z,100145.95
2023-04-20T20:28:51.417Z,100140.27
2023-04-20T20:31:23.122Z,100138.76
2023-04-20T20:33:52.428Z,100143.03
2023-04-20T20:36:21.482Z,100138.73
2023-04-20T20:38:52.152Z,100137.30
2023-04-20T20:41:23.507Z,100135.51
2023-04-20T20:43:55.938Z,100133.21
2023-04-20T20:46:24.742Z,100131.91
2023-04-20T20:48:53.731Z,100136.61
2023-04-20T20:51:23.431Z,100131.81
2023-04-20T20:53:53.171Z,100127.17
2023-04-20T20:56:22.247Z,100131.33
2023-04-20T20:58:54.535Z,100130.05
2023-04-20T21:01:23.296Z,100131.48
2023-04-20T21:03:52.536Z,100134.85
2023-04-20T21:06:21.065Z,100132.77
2023-04-20T21:08:49.301Z,100128.30
2023-04-20T21:11:17.839Z,100127.08
2023-04-20T21:13:46.525Z,100125.72
2023-04-20T21:16:15.166Z,100123.02
2023-04-20T21:18:43.727Z,100119.41
2023-04-20T21:21:15.939Z,100117.98
2023-04-20T21:23:44.498Z,100117.27
2023-04-20T21:26:13.342Z,100116.59
2023-04-20T21:28:42.249Z,100118.21
2023-04-20T21:31:11.013Z,100116.56
2023-04-20T21:33:39.802Z,100112.97
2023-04-20T21:36:08.958Z,100110.73
2023-04-20T21:38:37.972Z,100109.48
2023-04-20T21:41:06.407Z,100107.99
2023-04-20T21:43:34.827Z,100107.60
2023-04-20T21:46:04.140Z,100104.30
2023-04-20T21:48:33.618Z,100105.73
2023-04-20T21:51:02.106Z,100106.16
2023-04-20T21:53:30.694Z,100103.38
2023-04-20T21:55:59.107Z,100107.33
2023-04-20T21:58:28.463Z,100106.87
2023-04-20T22:00:57.099Z,100106.82
2023-04-20T22:03:26.517Z,100102.85
2023-04-20T22:05:56.269Z,100102.89
2023-04-20T22:08:24.650Z,100101.65
2023-04-20T22:10:53.207Z,100094.64
2023-04-20T22:13:22.543Z,100091.72
2023-04-20T22:15:52.137Z,100096.09
2023-04-20T22:18:22.356Z,100093.13
2023-04-20T22:20:51.679Z,100091.63
2023-04-20T22:23:20.580Z,100092.09
2023-04-20T22:25:49.237Z,100085.05
2023-04-20T22:28:18.103Z,100083.59
2023-04-20T22:30:47.292Z,100083.33
2023-04-20T22:33:16.561Z,100079.43
2023-04-20T22:35:45.424Z,100081.64
2023-04-20T22:38:14.067Z,100077.34
2023-04-20T22:40:42.654Z,100079.36
2023-04-20T22:43:11.593Z,100076.43
2023-04-20T22:45:40.342Z,100073.91
2023-04-20T22:48:09.425Z,100071.50
2023-04-20T22:50:38.003Z,100066.83
2023-04-20T22:53:06.405Z,100065.91
2023-04-20T22:55:34.784Z,100064.80
2023-04-20T22:58:03.486Z,100062.15
2023-04-20T23:00:31.882Z,100061.27
2023-04-20T23:03:02.193Z,100059.20
2023-04-20T23:05:31.010Z,100056.70
2023-04-20T23:08:00.776Z,100054.33
2023-04-20T23:10:29.811Z,100048.36
2023-04-20T23:12:58.625Z,100049.76
2023-04-20T23:15:27.100Z,100050.66
2023-04-20T23:17:57.505Z,100054.80
2023-04-20T23:20:27.264Z,100052.88
2023-04-20T23:22:55.946Z,100049.16
2023-04-20T23:25:24.654Z,100048.91
2023-04-20T23:27:54.859Z,100047.27
2023-04-20T23:30:23.662Z,100049.98
2023-04-20T23:32:51.998Z,100046.66
2023-04-20T23:35:20.683Z,100043.10
2023-04-20T23:37:49.481Z,100043.69
2023-04-20T23:40:17.924Z,100047.89
2023-04-20T23:42:46.362Z,100044.31
2023-04-20T23:45:14.733Z,100040.83
2023-04-20T23:47:43.276Z,100037.83
2023-04-20T23:50:11.792Z,100039.86
2023-04-20T23:52:41.971Z,100038.80
2023-04-20T23:55:11.450Z,100040.20
2023-04-20T23:57:41.604Z,100040.58
